sensor_id;sensor_type;location;lat;lon;timestamp;temperature;humidity
41904;DHT22;27586;51.124;4.182;2023-07-13T00:02:07;16.70;99.90
41904;DHT22;27586;51.124;4.182;2023-07-13T00:04:33;16.70;99.90
41904;DHT22;27586;51.124;4.182;2023-07-13T00:06:59;16.70;99.90
41904;DHT22;27586;51.124;4.182;2023-07-13T00:09:24;16.50;99.90
41904;DHT22;27586;51.124;4.182;2023-07-13T00:11:55;16.50;99.90
41904;DHT22;27586;51.124;4.182;2023-07-13T00:14:22;16.50;99.90
41904;DHT22;27586;51.124;4.182;2023-07-13T00:16:48;16.50;99.90
41904;DHT22;27586;51.124;4.182;2023-07-13T00:19:14;16.50;99.90
41904;DHT22;27586;51.124;4.182;2023-07-13T00:21:40;16.50;99.90
41904;DHT22;27586;51.124;4.182;2023-07-13T00:24:08;16.40;99.90
41904;DHT22;27586;51.124;4.182;2023-07-13T00:26:38;16.40;99.90
41904;DHT22;27586;51.124;4.182;2023-07-13T00:29:04;16.40;99.90
41904;DHT22;27586;51.124;4.182;2023-07-13T00:31:31;16.40;99.90
41904;DHT22;27586;51.124;4.182;2023-07-13T00:33:57;16.30;99.90
41904;DHT22;27586;51.124;4.182;2023-07-13T00:36:22;16.30;99.90
41904;DHT22;27586;51.124;4.182;2023-07-13T00:38:48;16.20;99.90
41904;DHT22;27586;51.124;4.182;2023-07-13T00:41:14;16.10;99.90
41904;DHT22;27586;51.124;4.182;2023-07-13T00:43:40;16.10;99.90
41904;DHT22;27586;51.124;4.182;2023-07-13T00:46:27;16.10;99.90
41904;DHT22;27586;51.124;4.182;2023-07-13T00:48:56;16.00;99.90
41904;DHT22;27586;51.124;4.182;2023-07-13T00:51:30;16.00;99.90
41904;DHT22;27586;51.124;4.182;2023-07-13T00:54:00;16.00;99.90
41904;DHT22;27586;51.124;4.182;2023-07-13T00:56:28;16.00;99.90
41904;DHT22;27586;51.124;4.182;2023-07-13T00:58:54;16.10;99.90
41904;DHT22;27586;51.124;4.182;2023-07-13T01:01:20;16.10;99.90
41904;DHT22;27586;51.124;4.182;2023-07-13T01:03:46;16.00;99.90
41904;DHT22;27586;51.124;4.182;2023-07-13T01:06:12;15.90;99.90
41904;DHT22;27586;51.124;4.182;2023-07-13T01:08:38;15.90;99.90
41904;DHT22;27586;51.124;4.182;2023-07-13T01:11:05;15.80;99.90
41904;DHT22;27586;51.124;4.182;2023-07-13T01:13:33;15.90;99.90
41904;DHT22;27586;51.124;4.182;2023-07-13T01:16:02;15.90;99.90
41904;DHT22;27586;51.124;4.182;2023-07-13T01:18:29;15.80;99.90
41904;DHT22;27586;51.124;4.182;2023-07-13T01:21:00;15.70;99.90
41904;DHT22;27586;51.124;4.182;2023-07-13T01:23:27;15.70;99.90
41904;DHT22;27586;51.124;4.182;2023-07-13T01:25:54;15.70;99.90
41904;DHT22;27586;51.124;4.182;2023-07-13T01:28:21;15.70;99.90
41904;DHT22;27586;51.124;4.182;2023-07-13T01:30:47;15.70;99.90
41904;DHT22;27586;51.124;4.182;2023-07-13T01:33:15;15.70;99.90
41904;DHT22;27586;51.124;4.182;2023-07-13T01:35:42;15.80;99.90
41904;DHT22;27586;51.124;4.182;2023-07-13T01:38:08;15.80;99.90
41904;DHT22;27586;51.124;4.182;2023-07-13T01:40:35;15.80;99.90
41904;DHT22;27586;51.124;4.182;2023-07-13T01:43:01;15.90;99.90
41904;DHT22;27586;51.124;4.182;2023-07-13T01:45:26;15.80;99.90
41904;DHT22;27586;51.124;4.182;2023-07-13T01:47:52;15.80;99.90
41904;DHT22;27586;51.124;4.182;2023-07-13T01:50:18;15.90;99.90
41904;DHT22;27586;51.124;4.182;2023-07-13T01:52:44;15.80;99.90
41904;DHT22;27586;51.124;4.182;2023-07-13T01:55:09;15.80;99.90
41904;DHT22;27586;51.124;4.182;2023-07-13T01:57:35;15.70;99.90
41904;DHT22;27586;51.124;4.182;2023-07-13T02:00:03;15.70;99.90
41904;DHT22;27586;51.124;4.182;2023-07-13T02:02:30;15.70;99.90
41904;DHT22;27586;51.124;4.182;2023-07-13T02:04:56;15.70;99.90
41904;DHT22;27586;51.124;4.182;2023-07-13T02:07:22;15.70;99.90
41904;DHT22;27586;51.124;4.182;2023-07-13T02:09:47;15.80;99.90
41904;DHT22;27586;51.124;4.182;2023-07-13T02:12:13;15.90;99.90
41904;DHT22;27586;51.124;4.182;2023-07-13T02:14:39;15.90;99.90
41904;DHT22;27586;51.124;4.182;2023-07-13T02:17:05;15.80;99.90
41904;DHT22;27586;51.124;4.182;2023-07-13T02:19:31;15.80;99.90
41904;DHT22;27586;51.124;4.182;2023-07-13T02:21:57;15.90;99.90
41904;DHT22;27586;51.124;4.182;2023-07-13T02:24:23;15.80;99.90
41904;DHT22;27586;51.124;4.182;2023-07-13T02:26:49;15.80;99.90
41904;DHT22;27586;51.124;4.182;2023-07-13T02:29:14;15.80;99.90
41904;DHT22;27586;51.124;4.182;2023-07-13T02:31:40;15.90;99.90
41904;DHT22;27586;51.124;4.182;2023-07-13T02:34:06;16.00;99.90
41904;DHT22;27586;51.124;4.182;2023-07-13T02:36:32;16.00;99.90
41904;DHT22;27586;51.124;4.182;2023-07-13T02:39:01;16.00;99.90
41904;DHT22;27586;51.124;4.182;2023-07-13T02:41:27;16.00;99.90
41904;DHT22;27586;51.124;4.182;2023-07-13T02:43:52;15.80;99.90
41904;DHT22;27586;51.124;4.182;2023-07-13T02:46:18;15.90;99.90
41904;DHT22;27586;51.124;4.182;2023-07-13T02:48:45;16.00;99.90
41904;DHT22;27586;51.124;4.182;2023-07-13T02:51:11;16.00;99.90
41904;DHT22;27586;51.124;4.182;2023-07-13T02:53:37;16.00;99.90
41904;DHT22;27586;51.124;4.182;2023-07-13T02:56:04;16.10;99.90
41904;DHT22;27586;51.124;4.182;2023-07-13T02:58:30;16.10;99.90
41904;DHT22;27586;51.124;4.182;2023-07-13T03:00:57;16.20;99.90
41904;DHT22;27586;51.124;4.182;2023-07-13T03:03:23;16.20;99.90
41904;DHT22;27586;51.124;4.182;2023-07-13T03:05:58;16.20;99.90
41904;DHT22;27586;51.124;4.182;2023-07-13T03:08:25;16.30;99.90
41904;DHT22;27586;51.124;4.182;2023-07-13T03:11:03;16.30;99.90
41904;DHT22;27586;51.124;4.182;2023-07-13T03:13:29;16.30;99.90
41904;DHT22;27586;51.124;4.182;2023-07-13T03:15:55;16.30;99.90
41904;DHT22;27586;51.124;4.182;2023-07-13T03:18:20;16.20;99.90
41904;DHT22;27586;51.124;4.182;2023-07-13T03:20:46;16.20;99.90
41904;DHT22;27586;51.124;4.182;2023-07-13T03:23:11;16.10;99.90
41904;DHT22;27586;51.124;4.182;2023-07-13T03:25:38;16.20;99.90
41904;DHT22;27586;51.124;4.182;2023-07-13T03:28:03;16.30;99.90
41904;DHT22;27586;51.124;4.182;2023-07-13T03:30:31;16.30;99.90
41904;DHT22;27586;51.124;4.182;2023-07-13T03:32:56;16.20;99.90
41904;DHT22;27586;51.124;4.182;2023-07-13T03:35:22;16.20;99.90
41904;DHT22;27586;51.124;4.182;2023-07-13T03:37:47;16.20;99.90
41904;DHT22;27586;51.124;4.182;2023-07-13T03:40:13;16.30;99.90
41904;DHT22;27586;51.124;4.182;2023-07-13T03:42:39;16.20;99.90
41904;DHT22;27586;51.124;4.182;2023-07-13T03:45:05;16.20;99.90
41904;DHT22;27586;51.124;4.182;2023-07-13T03:47:30;16.20;99.90
41904;DHT22;27586;51.124;4.182;2023-07-13T03:49:56;16.10;99.90
41904;DHT22;27586;51.124;4.182;2023-07-13T03:52:22;16.20;99.90
41904;DHT22;27586;51.124;4.182;2023-07-13T03:54:47;16.20;99.90
41904;DHT22;27586;51.124;4.182;2023-07-13T03:57:13;16.20;99.90
41904;DHT22;27586;51.124;4.182;2023-07-13T03:59:38;16.40;99.90
41904;DHT22;27586;51.124;4.182;2023-07-13T04:02:04;16.40;99.90
41904;DHT22;27586;51.124;4.182;2023-07-13T04:04:30;16.40;99.90
41904;DHT22;27586;51.124;4.182;2023-07-13T04:06:57;16.30;99.90
41904;DHT22;27586;51.124;4.182;2023-07-13T04:09:24;16.30;99.90
41904;DHT22;27586;51.124;4.182;2023-07-13T04:11:50;16.30;99.90
41904;DHT22;27586;51.124;4.182;2023-07-13T04:14:16;16.30;99.90
41904;DHT22;27586;51.124;4.182;2023-07-13T04:16:42;16.30;99.90
41904;DHT22;27586;51.124;4.182;2023-07-13T04:19:09;16.40;99.90
41904;DHT22;27586;51.124;4.182;2023-07-13T04:21:35;16.50;99.90
41904;DHT22;27586;51.124;4.182;2023-07-13T04:24:01;16.30;99.90
41904;DHT22;27586;51.124;4.182;2023-07-13T04:26:28;16.20;99.90
41904;DHT22;27586;51.124;4.182;2023-07-13T04:28:54;16.30;99.90
41904;DHT22;27586;51.124;4.182;2023-07-13T04:31:20;16.30;99.90
41904;DHT22;27586;51.124;4.182;2023-07-13T04:33:47;16.40;99.90
41904;DHT22;27586;51.124;4.182;2023-07-13T04:36:13;16.40;99.90
41904;DHT22;27586;51.124;4.182;2023-07-13T04:38:38;16.50;99.90
41904;DHT22;27586;51.124;4.182;2023-07-13T04:41:06;16.50;99.90
41904;DHT22;27586;51.124;4.182;2023-07-13T04:43:33;16.60;99.90
41904;DHT22;27586;51.124;4.182;2023-07-13T04:46:07;16.60;99.90
41904;DHT22;27586;51.124;4.182;2023-07-13T04:48:34;16.60;99.90
41904;DHT22;27586;51.124;4.182;2023-07-13T04:51:00;16.80;99.90
41904;DHT22;27586;51.124;4.182;2023-07-13T04:53:27;16.70;99.90
41904;DHT22;27586;51.124;4.182;2023-07-13T04:55:53;16.70;99.90
41904;DHT22;27586;51.124;4.182;2023-07-13T04:58:18;16.70;99.90
41904;DHT22;27586;51.124;4.182;2023-07-13T05:00:44;16.70;99.90
41904;DHT22;27586;51.124;4.182;2023-07-13T05:03:10;16.60;99.90
41904;DHT22;27586;51.124;4.182;2023-07-13T05:05:35;16.80;99.90
41904;DHT22;27586;51.124;4.182;2023-07-13T05:08:01;16.80;99.90
41904;DHT22;27586;51.124;4.182;2023-07-13T05:10:27;16.80;99.90
41904;DHT22;27586;51.124;4.182;2023-07-13T05:12:53;16.80;99.90
41904;DHT22;27586;51.124;4.182;2023-07-13T05:15:21;16.80;99.90
41904;DHT22;27586;51.124;4.182;2023-07-13T05:17:48;16.80;99.90
41904;DHT22;27586;51.124;4.182;2023-07-13T05:20:14;16.80;99.90
41904;DHT22;27586;51.124;4.182;2023-07-13T05:22:40;16.80;99.90
41904;DHT22;27586;51.124;4.182;2023-07-13T05:25:06;16.80;99.90
41904;DHT22;27586;51.124;4.182;2023-07-13T05:27:33;16.80;99.90
41904;DHT22;27586;51.124;4.182;2023-07-13T05:30:00;16.80;99.90
41904;DHT22;27586;51.124;4.182;2023-07-13T05:32:26;16.90;99.90
41904;DHT22;27586;51.124;4.182;2023-07-13T05:34:51;16.80;99.90
41904;DHT22;27586;51.124;4.182;2023-07-13T05:37:17;16.90;99.90
41904;DHT22;27586;51.124;4.182;2023-07-13T05:39:43;16.90;99.90
41904;DHT22;27586;51.124;4.182;2023-07-13T05:42:09;16.80;99.90
41904;DHT22;27586;51.124;4.182;2023-07-13T05:44:34;16.70;99.90
41904;DHT22;27586;51.124;4.182;2023-07-13T05:47:00;16.80;99.90
41904;DHT22;27586;51.124;4.182;2023-07-13T05:49:26;16.80;99.90
41904;DHT22;27586;51.124;4.182;2023-07-13T05:51:52;16.90;99.90
41904;DHT22;27586;51.124;4.182;2023-07-13T05:54:17;16.90;99.90
41904;DHT22;27586;51.124;4.182;2023-07-13T05:56:43;17.00;99.90
41904;DHT22;27586;51.124;4.182;2023-07-13T05:59:08;17.10;99.90
41904;DHT22;27586;51.124;4.182;2023-07-13T06:01:34;17.00;99.90
41904;DHT22;27586;51.124;4.182;2023-07-13T06:04:00;17.20;99.90
41904;DHT22;27586;51.124;4.182;2023-07-13T06:06:25;17.30;99.90
41904;DHT22;27586;51.124;4.182;2023-07-13T06:08:51;17.30;99.90
41904;DHT22;27586;51.124;4.182;2023-07-13T06:11:25;17.30;99.90
41904;DHT22;27586;51.124;4.182;2023-07-13T06:13:51;17.30;99.90
41904;DHT22;27586;51.124;4.182;2023-07-13T06:16:18;17.40;99.90
41904;DHT22;27586;51.124;4.182;2023-07-13T06:18:43;17.50;99.90
41904;DHT22;27586;51.124;4.182;2023-07-13T06:21:18;17.60;99.90
41904;DHT22;27586;51.124;4.182;2023-07-13T06:23:46;17.40;99.90
41904;DHT22;27586;51.124;4.182;2023-07-13T06:26:13;17.50;99.90
41904;DHT22;27586;51.124;4.182;2023-07-13T06:28:39;17.50;99.90
41904;DHT22;27586;51.124;4.182;2023-07-13T06:31:09;17.60;99.90
41904;DHT22;27586;51.124;4.182;2023-07-13T06:33:35;17.70;99.90
41904;DHT22;27586;51.124;4.182;2023-07-13T06:36:03;17.70;99.90
41904;DHT22;27586;51.124;4.182;2023-07-13T06:38:30;17.80;99.90
41904;DHT22;27586;51.124;4.182;2023-07-13T06:40:56;18.00;99.90
41904;DHT22;27586;51.124;4.182;2023-07-13T06:43:21;18.00;99.90
41904;DHT22;27586;51.124;4.182;2023-07-13T06:45:48;18.10;99.90
41904;DHT22;27586;51.124;4.182;2023-07-13T06:48:16;18.10;99.90
41904;DHT22;27586;51.124;4.182;2023-07-13T06:50:42;18.30;99.90
41904;DHT22;27586;51.124;4.182;2023-07-13T06:53:10;18.40;99.90
41904;DHT22;27586;51.124;4.182;2023-07-13T06:55:35;18.40;99.90
41904;DHT22;27586;51.124;4.182;2023-07-13T06:58:01;18.60;99.90
41904;DHT22;27586;51.124;4.182;2023-07-13T07:00:27;18.90;99.90
41904;DHT22;27586;51.124;4.182;2023-07-13T07:02:52;19.10;99.90
41904;DHT22;27586;51.124;4.182;2023-07-13T07:05:18;19.20;99.90
41904;DHT22;27586;51.124;4.182;2023-07-13T07:07:47;19.10;99.90
41904;DHT22;27586;51.124;4.182;2023-07-13T07:10:12;19.10;99.90
41904;DHT22;27586;51.124;4.182;2023-07-13T07:12:38;19.10;99.90
41904;DHT22;27586;51.124;4.182;2023-07-13T07:15:04;19.10;99.90
41904;DHT22;27586;51.124;4.182;2023-07-13T07:17:30;19.10;99.90
41904;DHT22;27586;51.124;4.182;2023-07-13T07:19:55;19.10;99.90
41904;DHT22;27586;51.124;4.182;2023-07-13T07:22:21;19.10;99.90
41904;DHT22;27586;51.124;4.182;2023-07-13T07:24:47;18.90;99.90
41904;DHT22;27586;51.124;4.182;2023-07-13T07:27:12;18.80;99.90
41904;DHT22;27586;51.124;4.182;2023-07-13T07:29:38;18.80;99.90
41904;DHT22;27586;51.124;4.182;2023-07-13T07:32:04;18.90;99.90
41904;DHT22;27586;51.124;4.182;2023-07-13T07:34:30;18.90;99.90
41904;DHT22;27586;51.124;4.182;2023-07-13T07:36:59;18.80;99.90
41904;DHT22;27586;51.124;4.182;2023-07-13T07:39:26;18.70;99.90
41904;DHT22;27586;51.124;4.182;2023-07-13T07:41:52;18.80;99.90
41904;DHT22;27586;51.124;4.182;2023-07-13T07:44:17;19.10;99.90
41904;DHT22;27586;51.124;4.182;2023-07-13T07:46:43;19.20;99.90
41904;DHT22;27586;51.124;4.182;2023-07-13T07:49:09;19.30;99.90
41904;DHT22;27586;51.124;4.182;2023-07-13T07:51:34;19.20;99.90
41904;DHT22;27586;51.124;4.182;2023-07-13T07:54:00;19.40;99.90
41904;DHT22;27586;51.124;4.182;2023-07-13T07:56:26;19.70;99.90
41904;DHT22;27586;51.124;4.182;2023-07-13T07:58:51;19.90;99.90
41904;DHT22;27586;51.124;4.182;2023-07-13T08:01:17;20.00;99.90
41904;DHT22;27586;51.124;4.182;2023-07-13T08:03:42;20.20;99.90
41904;DHT22;27586;51.124;4.182;2023-07-13T08:06:08;20.40;99.90
41904;DHT22;27586;51.124;4.182;2023-07-13T08:08:35;20.50;99.90
41904;DHT22;27586;51.124;4.182;2023-07-13T08:11:05;20.60;99.90
41904;DHT22;27586;51.124;4.182;2023-07-13T08:13:30;20.80;99.90
41904;DHT22;27586;51.124;4.182;2023-07-13T08:15:56;21.00;99.90
41904;DHT22;27586;51.124;4.182;2023-07-13T08:18:22;21.20;99.90
41904;DHT22;27586;51.124;4.182;2023-07-13T08:20:48;21.30;99.90
41904;DHT22;27586;51.124;4.182;2023-07-13T08:23:13;21.40;99.90
41904;DHT22;27586;51.124;4.182;2023-07-13T08:25:39;21.50;99.90
41904;DHT22;27586;51.124;4.182;2023-07-13T08:28:05;21.50;99.90
41904;DHT22;27586;51.124;4.182;2023-07-13T08:30:30;21.50;99.90
41904;DHT22;27586;51.124;4.182;2023-07-13T08:32:56;21.60;99.90
41904;DHT22;27586;51.124;4.182;2023-07-13T08:35:22;21.50;99.90
41904;DHT22;27586;51.124;4.182;2023-07-13T08:37:47;21.50;99.90
41904;DHT22;27586;51.124;4.182;2023-07-13T08:40:13;21.80;99.90
41904;DHT22;27586;51.124;4.182;2023-07-13T08:42:44;21.60;99.90
41904;DHT22;27586;51.124;4.182;2023-07-13T08:47:57;21.30;99.90
41904;DHT22;27586;51.124;4.182;2023-07-13T08:50:32;21.60;99.90
41904;DHT22;27586;51.124;4.182;2023-07-13T08:53:01;21.80;99.90
41904;DHT22;27586;51.124;4.182;2023-07-13T08:55:31;22.10;99.90
41904;DHT22;27586;51.124;4.182;2023-07-13T08:58:09;22.30;99.90
41904;DHT22;27586;51.124;4.182;2023-07-13T09:03:14;22.90;99.90
41904;DHT22;27586;51.124;4.182;2023-07-13T09:05:47;23.30;99.90
41904;DHT22;27586;51.124;4.182;2023-07-13T09:08:35;23.10;99.90
41904;DHT22;27586;51.124;4.182;2023-07-13T09:11:32;23.40;99.90
41904;DHT22;27586;51.124;4.182;2023-07-13T09:17:04;23.20;99.90
41904;DHT22;27586;51.124;4.182;2023-07-13T09:19:32;22.80;99.90
41904;DHT22;27586;51.124;4.182;2023-07-13T09:21:59;22.60;99.90
41904;DHT22;27586;51.124;4.182;2023-07-13T09:26:58;23.20;99.90
41904;DHT22;27586;51.124;4.182;2023-07-13T09:29:31;23.40;99.90
41904;DHT22;27586;51.124;4.182;2023-07-13T09:32:04;23.60;99.90
41904;DHT22;27586;51.124;4.182;2023-07-13T09:34:32;23.50;99.90
41904;DHT22;27586;51.124;4.182;2023-07-13T09:36:58;23.20;99.90
41904;DHT22;27586;51.124;4.182;2023-07-13T09:39:28;22.60;99.90
41904;DHT22;27586;51.124;4.182;2023-07-13T09:42:17;22.30;99.90
41904;DHT22;27586;51.124;4.182;2023-07-13T09:44:58;22.10;99.90
41904;DHT22;27586;51.124;4.182;2023-07-13T09:50:02;21.60;99.90
41904;DHT22;27586;51.124;4.182;2023-07-13T09:52:41;21.50;99.90
41904;DHT22;27586;51.124;4.182;2023-07-13T09:55:34;21.50;99.90
41904;DHT22;27586;51.124;4.182;2023-07-13T10:00:42;21.50;99.90
41904;DHT22;27586;51.124;4.182;2023-07-13T10:03:20;21.30;99.90
41904;DHT22;27586;51.124;4.182;2023-07-13T10:05:49;21.50;99.90
41904;DHT22;27586;51.124;4.182;2023-07-13T10:08:38;21.60;99.90
41904;DHT22;27586;51.124;4.182;2023-07-13T10:11:14;21.90;99.90
41904;DHT22;27586;51.124;4.182;2023-07-13T10:16:29;22.50;99.90
41904;DHT22;27586;51.124;4.182;2023-07-13T10:22:13;22.50;99.90
41904;DHT22;27586;51.124;4.182;2023-07-13T10:24:40;22.40;99.90
41904;DHT22;27586;51.124;4.182;2023-07-13T10:27:23;22.40;99.90
41904;DHT22;27586;51.124;4.182;2023-07-13T10:32:37;22.20;99.90
41904;DHT22;27586;51.124;4.182;2023-07-13T10:35:03;22.00;99.90
41904;DHT22;27586;51.124;4.182;2023-07-13T10:37:43;22.10;99.90
41904;DHT22;27586;51.124;4.182;2023-07-13T10:40:23;22.50;99.90
41904;DHT22;27586;51.124;4.182;2023-07-13T10:42:53;22.60;99.90
41904;DHT22;27586;51.124;4.182;2023-07-13T10:45:23;22.70;99.90
41904;DHT22;27586;51.124;4.182;2023-07-13T10:47:51;22.80;99.90
41904;DHT22;27586;51.124;4.182;2023-07-13T10:50:27;23.10;99.90
41904;DHT22;27586;51.124;4.182;2023-07-13T10:53:02;23.30;99.90
41904;DHT22;27586;51.124;4.182;2023-07-13T10:58:36;23.40;99.90
41904;DHT22;27586;51.124;4.182;2023-07-13T11:01:12;23.20;99.90
41904;DHT22;27586;51.124;4.182;2023-07-13T11:06:15;23.00;99.90
41904;DHT22;27586;51.124;4.182;2023-07-13T11:18:52;21.70;99.90
41904;DHT22;27586;51.124;4.182;2023-07-13T11:21:20;20.70;99.90
41904;DHT22;27586;51.124;4.182;2023-07-13T11:31:50;19.00;99.90
41904;DHT22;27586;51.124;4.182;2023-07-13T11:34:19;19.00;99.90
41904;DHT22;27586;51.124;4.182;2023-07-13T11:36:48;18.80;99.90
41904;DHT22;27586;51.124;4.182;2023-07-13T11:39:18;18.70;99.90
41904;DHT22;27586;51.124;4.182;2023-07-13T11:41:50;18.60;99.90
41904;DHT22;27586;51.124;4.182;2023-07-13T11:44:22;18.40;99.90
41904;DHT22;27586;51.124;4.182;2023-07-13T11:46:50;18.40;99.90
41904;DHT22;27586;51.124;4.182;2023-07-13T11:49:24;18.40;99.90
41904;DHT22;27586;51.124;4.182;2023-07-13T11:51:52;18.50;99.90
41904;DHT22;27586;51.124;4.182;2023-07-13T11:54:27;18.50;99.90
41904;DHT22;27586;51.124;4.182;2023-07-13T11:56:56;18.50;99.90
41904;DHT22;27586;51.124;4.182;2023-07-13T11:59:25;18.50;99.90
41904;DHT22;27586;51.124;4.182;2023-07-13T12:01:53;18.50;99.90
41904;DHT22;27586;51.124;4.182;2023-07-13T12:04:26;18.70;99.90
41904;DHT22;27586;51.124;4.182;2023-07-13T12:09:29;18.70;99.90
41904;DHT22;27586;51.124;4.182;2023-07-13T12:11:57;18.70;99.90
41904;DHT22;27586;51.124;4.182;2023-07-13T12:14:25;18.70;99.90
41904;DHT22;27586;51.124;4.182;2023-07-13T12:16:52;18.70;99.90
41904;DHT22;27586;51.124;4.182;2023-07-13T12:19:21;18.80;99.90
41904;DHT22;27586;51.124;4.182;2023-07-13T12:21:48;18.90;99.90
41904;DHT22;27586;51.124;4.182;2023-07-13T12:24:20;18.90;99.90
41904;DHT22;27586;51.124;4.182;2023-07-13T12:26:52;19.20;99.90
41904;DHT22;27586;51.124;4.182;2023-07-13T12:29:18;19.30;99.90
41904;DHT22;27586;51.124;4.182;2023-07-13T12:31:47;19.40;99.90
41904;DHT22;27586;51.124;4.182;2023-07-13T12:34:16;19.40;99.90
41904;DHT22;27586;51.124;4.182;2023-07-13T12:39:52;19.50;99.90
41904;DHT22;27586;51.124;4.182;2023-07-13T12:42:23;19.40;99.90
41904;DHT22;27586;51.124;4.182;2023-07-13T12:44:54;19.50;99.90
41904;DHT22;27586;51.124;4.182;2023-07-13T12:47:21;19.70;99.90
41904;DHT22;27586;51.124;4.182;2023-07-13T12:49:56;19.60;99.90
41904;DHT22;27586;51.124;4.182;2023-07-13T12:52:32;20.00;99.90
41904;DHT22;27586;51.124;4.182;2023-07-13T12:55:13;20.30;99.90
41904;DHT22;27586;51.124;4.182;2023-07-13T12:57:56;20.70;99.90
41904;DHT22;27586;51.124;4.182;2023-07-13T13:00:35;20.90;99.90
41904;DHT22;27586;51.124;4.182;2023-07-13T13:05:44;20.90;99.90
41904;DHT22;27586;51.124;4.182;2023-07-13T13:08:13;21.00;99.90
41904;DHT22;27586;51.124;4.182;2023-07-13T13:10:39;21.00;99.90
41904;DHT22;27586;51.124;4.182;2023-07-13T13:13:05;21.00;99.90
41904;DHT22;27586;51.124;4.182;2023-07-13T13:15:30;20.90;99.90
41904;DHT22;27586;51.124;4.182;2023-07-13T13:17:56;21.00;99.90
41904;DHT22;27586;51.124;4.182;2023-07-13T13:20:24;20.90;99.90
41904;DHT22;27586;51.124;4.182;2023-07-13T13:22:51;21.00;99.90
41904;DHT22;27586;51.124;4.182;2023-07-13T13:25:18;21.40;99.90
41904;DHT22;27586;51.124;4.182;2023-07-13T13:27:45;21.50;99.90
41904;DHT22;27586;51.124;4.182;2023-07-13T13:30:19;21.50;99.90
41904;DHT22;27586;51.124;4.182;2023-07-13T13:32:47;21.70;99.90
41904;DHT22;27586;51.124;4.182;2023-07-13T13:35:15;21.70;99.90
41904;DHT22;27586;51.124;4.182;2023-07-13T13:37:41;21.50;99.90
41904;DHT22;27586;51.124;4.182;2023-07-13T13:40:18;21.40;99.90
41904;DHT22;27586;51.124;4.182;2023-07-13T13:42:44;21.10;99.90
41904;DHT22;27586;51.124;4.182;2023-07-13T13:45:11;21.20;99.90
41904;DHT22;27586;51.124;4.182;2023-07-13T13:47:38;21.20;99.90
41904;DHT22;27586;51.124;4.182;2023-07-13T13:50:20;20.80;99.90
41904;DHT22;27586;51.124;4.182;2023-07-13T13:52:48;20.70;99.90
41904;DHT22;27586;51.124;4.182;2023-07-13T13:55:20;20.60;99.90
41904;DHT22;27586;51.124;4.182;2023-07-13T13:57:47;20.30;99.90
41904;DHT22;27586;51.124;4.182;2023-07-13T14:00:14;20.30;99.90
41904;DHT22;27586;51.124;4.182;2023-07-13T14:02:44;20.30;99.90
41904;DHT22;27586;51.124;4.182;2023-07-13T14:05:14;20.30;99.90
41904;DHT22;27586;51.124;4.182;2023-07-13T14:07:40;20.40;99.90
41904;DHT22;27586;51.124;4.182;2023-07-13T14:10:12;20.60;99.90
41904;DHT22;27586;51.124;4.182;2023-07-13T14:12:44;20.90;99.90
41904;DHT22;27586;51.124;4.182;2023-07-13T14:17:45;21.20;99.90
41904;DHT22;27586;51.124;4.182;2023-07-13T14:20:14;21.10;99.90
41904;DHT22;27586;51.124;4.182;2023-07-13T14:22:41;21.00;99.90
41904;DHT22;27586;51.124;4.182;2023-07-13T14:25:14;20.90;99.90
41904;DHT22;27586;51.124;4.182;2023-07-13T14:27:41;20.90;99.90
41904;DHT22;27586;51.124;4.182;2023-07-13T14:30:19;20.90;99.90
41904;DHT22;27586;51.124;4.182;2023-07-13T14:32:46;20.80;99.90
41904;DHT22;27586;51.124;4.182;2023-07-13T14:35:13;21.00;99.90
41904;DHT22;27586;51.124;4.182;2023-07-13T14:37:42;21.20;99.90
41904;DHT22;27586;51.124;4.182;2023-07-13T14:40:14;21.30;99.90
41904;DHT22;27586;51.124;4.182;2023-07-13T14:42:40;21.20;99.90
41904;DHT22;27586;51.124;4.182;2023-07-13T14:45:12;21.10;99.90
41904;DHT22;27586;51.124;4.182;2023-07-13T14:47:39;21.00;99.90
41904;DHT22;27586;51.124;4.182;2023-07-13T14:50:04;20.90;99.90
41904;DHT22;27586;51.124;4.182;2023-07-13T14:52:30;21.00;99.90
41904;DHT22;27586;51.124;4.182;2023-07-13T14:54:56;20.90;99.90
41904;DHT22;27586;51.124;4.182;2023-07-13T14:57:22;21.00;99.90
41904;DHT22;27586;51.124;4.182;2023-07-13T14:59:48;21.20;99.90
41904;DHT22;27586;51.124;4.182;2023-07-13T15:02:18;21.20;99.90
41904;DHT22;27586;51.124;4.182;2023-07-13T15:04:46;21.20;99.90
41904;DHT22;27586;51.124;4.182;2023-07-13T15:07:12;21.30;99.90
41904;DHT22;27586;51.124;4.182;2023-07-13T15:09:41;21.50;99.90
41904;DHT22;27586;51.124;4.182;2023-07-13T15:12:07;21.40;99.90
41904;DHT22;27586;51.124;4.182;2023-07-13T15:14:33;21.40;99.90
41904;DHT22;27586;51.124;4.182;2023-07-13T15:16:59;21.00;99.90
41904;DHT22;27586;51.124;4.182;2023-07-13T15:19:26;21.00;99.90
41904;DHT22;27586;51.124;4.182;2023-07-13T15:21:52;21.20;99.90
41904;DHT22;27586;51.124;4.182;2023-07-13T15:24:20;21.10;99.90
41904;DHT22;27586;51.124;4.182;2023-07-13T15:26:47;21.40;99.90
41904;DHT22;27586;51.124;4.182;2023-07-13T15:29:15;21.70;99.90
41904;DHT22;27586;51.124;4.182;2023-07-13T15:31:41;21.90;99.90
41904;DHT22;27586;51.124;4.182;2023-07-13T15:34:15;22.00;99.90
41904;DHT22;27586;51.124;4.182;2023-07-13T15:36:45;21.90;99.90
41904;DHT22;27586;51.124;4.182;2023-07-13T15:39:15;21.70;99.90
41904;DHT22;27586;51.124;4.182;2023-07-13T15:41:45;21.70;99.90
41904;DHT22;27586;51.124;4.182;2023-07-13T15:44:28;21.60;99.90
41904;DHT22;27586;51.124;4.182;2023-07-13T15:46:55;21.50;99.90
41904;DHT22;27586;51.124;4.182;2023-07-13T15:49:20;21.50;99.90
41904;DHT22;27586;51.124;4.182;2023-07-13T15:51:47;21.50;99.90
41904;DHT22;27586;51.124;4.182;2023-07-13T15:54:16;21.70;99.90
41904;DHT22;27586;51.124;4.182;2023-07-13T15:56:42;21.80;99.90
41904;DHT22;27586;51.124;4.182;2023-07-13T15:59:10;21.90;99.90
41904;DHT22;27586;51.124;4.182;2023-07-13T16:01:38;21.70;99.90
41904;DHT22;27586;51.124;4.182;2023-07-13T16:04:04;21.70;99.90
41904;DHT22;27586;51.124;4.182;2023-07-13T16:06:35;21.60;99.90
41904;DHT22;27586;51.124;4.182;2023-07-13T16:09:03;21.60;99.90
41904;DHT22;27586;51.124;4.182;2023-07-13T16:11:37;21.50;99.90
41904;DHT22;27586;51.124;4.182;2023-07-13T16:14:05;21.60;99.90
41904;DHT22;27586;51.124;4.182;2023-07-13T16:16:34;21.30;99.90
41904;DHT22;27586;51.124;4.182;2023-07-13T16:19:02;21.30;99.90
41904;DHT22;27586;51.124;4.182;2023-07-13T16:21:32;21.30;99.90
41904;DHT22;27586;51.124;4.182;2023-07-13T16:24:00;21.30;99.90
41904;DHT22;27586;51.124;4.182;2023-07-13T16:28:52;21.50;99.90
41904;DHT22;27586;51.124;4.182;2023-07-13T16:31:26;21.50;99.90
41904;DHT22;27586;51.124;4.182;2023-07-13T16:33:52;21.60;99.90
41904;DHT22;27586;51.124;4.182;2023-07-13T16:36:28;21.70;99.90
41904;DHT22;27586;51.124;4.182;2023-07-13T16:38:54;21.60;99.90